createdAt,value
2022-08-04T00:00:40.736Z,954.42
2022-08-04T00:01:40.772Z,954.4
2022-08-04T00:02:40.725Z,954.43
2022-08-04T00:03:40.717Z,954.42
2022-08-04T00:04:40.718Z,954.44
2022-08-04T00:05:40.712Z,954.41
2022-08-04T00:06:40.709Z,954.4
2022-08-04T00:07:42.448Z,954.39
2022-08-04T00:08:40.703Z,954.42
2022-08-04T00:09:40.699Z,954.43
2022-08-04T00:10:40.697Z,954.42
2022-08-04T00:11:40.691Z,954.42
2022-08-04T00:12:40.689Z,954.4
2022-08-04T00:13:52.617Z,954.39
2022-08-04T00:14:40.684Z,954.39
2022-08-04T00:15:40.680Z,954.4
2022-08-04T00:16:40.680Z,954.35
2022-08-04T00:17:40.676Z,954.41
2022-08-04T00:18:40.670Z,954.38
2022-08-04T00:19:40.666Z,954.43
2022-08-04T00:20:40.666Z,954.41
2022-08-04T00:21:40.659Z,954.42
2022-08-04T00:22:40.657Z,954.4
2022-08-04T00:24:11.202Z,954.45
2022-08-04T00:24:40.650Z,954.42
2022-08-04T00:25:40.653Z,954.41
2022-08-04T00:26:40.648Z,954.41
2022-08-04T00:27:40.638Z,954.43
2022-08-04T00:28:40.638Z,954.41
2022-08-04T00:29:40.635Z,954.43
2022-08-04T00:30:40.631Z,954.4
2022-08-04T00:31:54.491Z,954.42
2022-08-04T00:32:40.622Z,954.43
2022-08-04T00:33:40.622Z,954.4
2022-08-04T00:34:40.616Z,954.42
2022-08-04T00:35:40.613Z,954.39
2022-08-04T00:36:40.607Z,954.43
2022-08-04T00:37:40.606Z,954.44
2022-08-04T00:38:40.601Z,954.42
2022-08-04T00:39:40.734Z,954.43
2022-08-04T00:40:40.597Z,954.44
2022-08-04T00:41:44.976Z,954.47
2022-08-04T00:42:40.587Z,954.46
2022-08-04T00:43:40.587Z,954.47
2022-08-04T00:44:40.582Z,954.51
2022-08-04T00:46:00.598Z,954.52
2022-08-04T00:46:40.572Z,954.49
2022-08-04T00:47:40.577Z,954.52
2022-08-04T00:48:40.566Z,954.53
2022-08-04T00:49:40.564Z,954.51
2022-08-04T00:50:40.558Z,954.52
2022-08-04T00:51:40.559Z,954.52
2022-08-04T00:52:40.554Z,954.5
2022-08-04T00:53:40.550Z,954.56
2022-08-04T00:54:40.545Z,954.53
2022-08-04T00:55:40.543Z,954.51
2022-08-04T00:56:40.538Z,954.49
2022-08-04T00:57:40.538Z,954.51
2022-08-04T00:58:40.530Z,954.53
2022-08-04T00:59:40.529Z,954.52
2022-08-04T01:00:40.526Z,954.55
2022-08-04T01:01:40.578Z,954.5
2022-08-04T01:02:40.517Z,954.52
2022-08-04T01:03:40.514Z,954.56
2022-08-04T01:04:40.510Z,954.54
2022-08-04T01:05:40.508Z,954.57
2022-08-04T01:06:40.503Z,954.55
2022-08-04T01:07:40.502Z,954.54
2022-08-04T01:08:40.503Z,954.56
2022-08-04T01:09:40.493Z,954.54
2022-08-04T01:10:40.497Z,954.58
2022-08-04T01:11:56.121Z,954.54
2022-08-04T01:12:40.482Z,954.58
2022-08-04T01:13:40.481Z,954.57
2022-08-04T01:14:40.476Z,954.61
2022-08-04T01:15:53.879Z,954.55
2022-08-04T01:16:40.468Z,954.61
2022-08-04T01:17:40.466Z,954.57
2022-08-04T01:18:40.459Z,954.58
2022-08-04T01:19:40.461Z,954.55
2022-08-04T01:20:40.454Z,954.55
2022-08-04T01:21:40.452Z,954.56
2022-08-04T01:22:40.447Z,954.55
2022-08-04T01:23:40.442Z,954.56
2022-08-04T01:24:40.441Z,954.57
2022-08-04T01:25:40.436Z,954.57
2022-08-04T01:26:42.960Z,954.54
2022-08-04T01:27:40.432Z,954.55
2022-08-04T01:28:42.979Z,954.52
2022-08-04T01:29:44.213Z,954.52
2022-08-04T01:30:40.420Z,954.52
2022-08-04T01:31:40.416Z,954.52
2022-08-04T01:32:40.416Z,954.5
2022-08-04T01:33:58.338Z,954.5
2022-08-04T01:34:40.407Z,954.51
2022-08-04T01:35:46.276Z,954.51
2022-08-04T01:36:40.463Z,954.54
2022-08-04T01:37:40.394Z,954.5
2022-08-04T01:38:40.393Z,954.52
2022-08-04T01:39:40.388Z,954.47
2022-08-04T01:40:40.386Z,954.54
2022-08-04T01:41:40.380Z,954.5
2022-08-04T01:42:40.380Z,954.49
2022-08-04T01:43:41.192Z,954.54
2022-08-04T01:44:41.192Z,954.51
2022-08-04T01:45:41.182Z,954.5
2022-08-04T01:46:41.183Z,954.49
2022-08-04T01:47:41.174Z,954.52
2022-08-04T01:48:41.174Z,954.49
2022-08-04T01:49:41.268Z,954.52
2022-08-04T01:50:41.174Z,954.51
2022-08-04T01:51:41.162Z,954.5
2022-08-04T01:52:41.158Z,954.5
2022-08-04T01:53:41.155Z,954.5
2022-08-04T01:54:41.154Z,954.49
2022-08-04T01:55:52.174Z,954.51
2022-08-04T01:56:41.145Z,954.52
2022-08-04T01:57:41.248Z,954.49
2022-08-04T01:58:41.139Z,954.47
2022-08-04T01:59:41.135Z,954.48
2022-08-04T02:00:41.132Z,954.52
2022-08-04T02:01:41.213Z,954.48
2022-08-04T02:02:41.217Z,954.48
2022-08-04T02:04:18.950Z,954.49
2022-08-04T02:04:41.118Z,954.47
2022-08-04T02:06:02.782Z,954.48
2022-08-04T02:06:41.112Z,954.44
2022-08-04T02:07:41.106Z,954.48
2022-08-04T02:08:41.104Z,954.45
2022-08-04T02:09:53.615Z,954.46
2022-08-04T02:10:41.099Z,954.44
2022-08-04T02:11:41.092Z,954.49
2022-08-04T02:12:41.088Z,954.47
2022-08-04T02:13:41.084Z,954.47
2022-08-04T02:14:41.083Z,954.54
2022-08-04T02:15:41.082Z,954.5
2022-08-04T02:16:41.076Z,954.49
2022-08-04T02:17:41.073Z,954.53
2022-08-04T02:18:41.070Z,954.48
2022-08-04T02:19:41.068Z,954.46
2022-08-04T02:20:41.060Z,954.47
2022-08-04T02:21:42.159Z,954.48
2022-08-04T02:22:41.055Z,954.45
2022-08-04T02:23:41.061Z,954.46
2022-08-04T02:24:41.047Z,954.49
2022-08-04T02:25:41.047Z,954.47
2022-08-04T02:26:41.040Z,954.47
2022-08-04T02:27:59.452Z,954.46
2022-08-04T02:28:41.034Z,954.46
2022-08-04T02:29:41.032Z,954.45
2022-08-04T02:30:41.065Z,954.42
2022-08-04T02:31:41.024Z,954.43
2022-08-04T02:32:41.020Z,954.44
2022-08-04T02:33:41.020Z,954.42
2022-08-04T02:34:41.015Z,954.38
2022-08-04T02:35:41.011Z,954.42
2022-08-04T02:36:41.012Z,954.4
2022-08-04T02:37:41.007Z,954.39
2022-08-04T02:38:40.999Z,954.36
2022-08-04T02:39:41.599Z,954.38
2022-08-04T02:40:40.994Z,954.43
2022-08-04T02:41:40.992Z,954.4
2022-08-04T02:42:40.987Z,954.39
2022-08-04T02:43:50.522Z,954.37
2022-08-04T02:44:40.979Z,954.37
2022-08-04T02:45:40.977Z,954.34
2022-08-04T02:46:40.973Z,954.4
2022-08-04T02:48:08.394Z,954.35
2022-08-04T02:48:40.966Z,954.36
2022-08-04T02:49:41.336Z,954.33
2022-08-04T02:50:40.960Z,954.39
2022-08-04T02:51:40.960Z,954.37
2022-08-04T02:52:40.952Z,954.36
2022-08-04T02:53:40.950Z,954.36
2022-08-04T02:54:40.946Z,954.32
2022-08-04T02:55:40.951Z,954.29
2022-08-04T02:56:40.936Z,954.31
2022-08-04T02:57:40.935Z,954.33
2022-08-04T02:58:40.931Z,954.32
2022-08-04T02:59:40.930Z,954.31
2022-08-04T03:00:40.963Z,954.31
2022-08-04T03:01:56.614Z,954.32
2022-08-04T03:02:40.919Z,954.34
2022-08-04T03:03:40.922Z,954.37
2022-08-04T03:04:40.908Z,954.33
2022-08-04T03:05:50.114Z,954.35
2022-08-04T03:06:40.905Z,954.39
2022-08-04T03:07:40.898Z,954.39
2022-08-04T03:08:40.897Z,954.41
2022-08-04T03:09:40.893Z,954.37
2022-08-04T03:10:40.891Z,954.42
2022-08-04T03:11:40.888Z,954.39
2022-08-04T03:12:40.885Z,954.44
2022-08-04T03:13:40.878Z,954.41
2022-08-04T03:14:40.876Z,954.38
2022-08-04T03:15:40.872Z,954.38
2022-08-04T03:16:40.870Z,954.37
2022-08-04T03:17:52.758Z,954.41
2022-08-04T03:18:40.863Z,954.37
2022-08-04T03:19:40.859Z,954.41
2022-08-04T03:20:40.856Z,954.39
2022-08-04T03:21:40.852Z,954.39
2022-08-04T03:22:53.909Z,954.4
2022-08-04T03:23:40.845Z,954.39
2022-08-04T03:24:40.843Z,954.45
2022-08-04T03:25:54.337Z,954.41
2022-08-04T03:26:40.838Z,954.39
2022-08-04T03:27:40.831Z,954.42
2022-08-04T03:28:40.830Z,954.42
2022-08-04T03:29:40.824Z,954.48
2022-08-04T03:30:40.822Z,954.47
2022-08-04T03:31:40.825Z,954.47
2022-08-04T03:32:40.815Z,954.47
2022-08-04T03:49:45.456Z,954.45
2022-08-04T03:50:45.449Z,954.48
2022-08-04T03:51:45.444Z,954.49
2022-08-04T03:52:47.207Z,954.49
2022-08-04T03:53:45.428Z,954.5
2022-08-04T03:54:45.423Z,954.46
2022-08-04T03:55:45.418Z,954.49
2022-08-04T03:56:45.411Z,954.47
2022-08-04T03:57:45.405Z,954.45
2022-08-04T03:58:45.399Z,954.44
2022-08-04T03:59:48.079Z,954.38
2022-08-04T04:00:45.389Z,954.42
2022-08-04T04:02:01.778Z,954.44
2022-08-04T04:02:45.449Z,954.37
2022-08-04T04:03:45.376Z,954.38
2022-08-04T04:04:45.369Z,954.42
2022-08-04T04:05:59.233Z,954.41
2022-08-04T04:06:47.343Z,954.45
2022-08-04T04:07:46.762Z,954.42
2022-08-04T04:08:45.353Z,954.44
2022-08-04T04:09:50.945Z,954.47
2022-08-04T04:10:45.342Z,954.45
2022-08-04T04:11:54.374Z,954.46
2022-08-04T04:12:45.336Z,954.4
2022-08-04T04:13:45.334Z,954.46
2022-08-04T04:14:45.327Z,954.42
2022-08-04T04:15:49.642Z,954.46
2022-08-04T04:16:45.318Z,954.45
2022-08-04T04:17:45.317Z,954.41
2022-08-04T04:18:45.442Z,954.44
2022-08-04T04:19:45.308Z,954.42
2022-08-04T04:20:45.302Z,954.39
2022-08-04T04:21:45.300Z,954.44
2022-08-04T04:22:45.293Z,954.47
2022-08-04T04:23:45.292Z,954.44
2022-08-04T04:24:45.292Z,954.41
2022-08-04T04:25:45.294Z,954.39
2022-08-04T04:26:45.279Z,954.44
2022-08-04T04:27:45.275Z,954.46
2022-08-04T04:28:47.045Z,954.42
2022-08-04T04:29:45.270Z,954.44
2022-08-04T04:30:45.266Z,954.43
2022-08-04T04:31:45.265Z,954.44
2022-08-04T04:32:45.255Z,954.48
2022-08-04T04:33:45.254Z,954.48
2022-08-04T04:34:46.312Z,954.46
2022-08-04T04:35:45.248Z,954.48
2022-08-04T04:36:45.241Z,954.48
2022-08-04T04:37:47.643Z,954.5
2022-08-04T04:38:45.235Z,954.53
2022-08-04T04:39:45.238Z,954.45
2022-08-04T04:40:45.231Z,954.51
2022-08-04T04:41:45.224Z,954.52
2022-08-04T04:42:45.222Z,954.46
2022-08-04T04:43:50.715Z,954.49
2022-08-04T04:44:45.217Z,954.49
2022-08-04T04:45:45.210Z,954.48
2022-08-04T04:46:45.208Z,954.47
2022-08-04T04:48:07.870Z,954.46
2022-08-04T04:48:45.200Z,954.48
2022-08-04T04:49:45.195Z,954.47
2022-08-04T04:50:45.196Z,954.46
2022-08-04T04:51:45.190Z,954.51
2022-08-04T04:52:45.188Z,954.51
2022-08-04T04:53:45.182Z,954.51
2022-08-04T04:54:45.180Z,954.52
2022-08-04T04:55:48.205Z,954.53
2022-08-04T04:56:45.175Z,954.49
2022-08-04T04:57:51.944Z,954.51
2022-08-04T04:58:45.166Z,954.49
2022-08-04T04:59:45.463Z,954.51
2022-08-04T05:00:45.161Z,954.52
2022-08-04T05:01:45.158Z,954.55
2022-08-04T05:02:45.160Z,954.56
2022-08-04T05:03:45.148Z,954.53
2022-08-04T05:04:45.146Z,954.56
2022-08-04T05:05:45.141Z,954.51
2022-08-04T05:06:45.141Z,954.52
2022-08-04T05:07:45.137Z,954.53
2022-08-04T05:08:47.487Z,954.52
2022-08-04T05:09:45.130Z,954.53
2022-08-04T05:10:45.133Z,954.55
2022-08-04T05:11:45.123Z,954.53
2022-08-04T05:14:34.329Z,954.54
2022-08-04T05:14:48.973Z,954.54
2022-08-04T05:15:48.970Z,954.55
2022-08-04T05:16:48.965Z,954.53
2022-08-04T05:17:48.964Z,954.56
2022-08-04T05:18:48.959Z,954.55
2022-08-04T05:19:48.959Z,954.6
2022-08-04T05:20:48.952Z,954.56
2022-08-04T05:21:48.951Z,954.58
2022-08-04T05:22:48.946Z,954.55
2022-08-04T05:23:48.945Z,954.56
2022-08-04T05:24:48.944Z,954.52
2022-08-04T05:25:50.242Z,954.53
2022-08-04T05:26:48.936Z,954.55
2022-08-04T05:27:48.949Z,954.54
2022-08-04T05:28:48.931Z,954.54
2022-08-04T05:29:48.929Z,954.57
2022-08-04T05:30:48.925Z,954.57
2022-08-04T05:31:48.923Z,954.56
2022-08-04T05:32:48.918Z,954.58
2022-08-04T05:33:48.915Z,954.55
2022-08-04T05:34:48.916Z,954.53
2022-08-04T05:36:16.471Z,954.54
2022-08-04T05:36:48.909Z,954.47
2022-08-04T05:37:48.906Z,954.45
2022-08-04T05:38:48.905Z,954.45
2022-08-04T05:39:48.902Z,954.5
2022-08-04T05:40:48.900Z,954.49
2022-08-04T05:41:55.488Z,954.44
2022-08-04T05:42:48.893Z,954.51
2022-08-04T05:43:48.901Z,954.5
2022-08-04T05:44:51.067Z,954.56
2022-08-04T05:45:48.889Z,954.55
2022-08-04T05:46:53.882Z,954.54
2022-08-04T05:47:48.882Z,954.55
2022-08-04T05:48:48.880Z,954.55
2022-08-04T05:49:55.778Z,954.55
2022-08-04T05:50:48.877Z,954.55
2022-08-04T05:51:48.871Z,954.56
2022-08-04T05:52:48.872Z,954.55
2022-08-04T05:53:48.868Z,954.53
2022-08-04T05:54:48.867Z,954.58
2022-08-04T05:55:58.221Z,954.53
2022-08-04T05:56:48.862Z,954.54
2022-08-04T05:57:51.808Z,954.55
2022-08-04T05:58:48.861Z,954.58
2022-08-04T05:59:48.854Z,954.57
2022-08-04T06:00:51.470Z,954.54
2022-08-04T06:01:55.264Z,954.56
2022-08-04T06:02:48.850Z,954.54
2022-08-04T06:03:48.845Z,954.56
2022-08-04T06:04:48.846Z,954.55
2022-08-04T06:05:48.843Z,954.59
2022-08-04T06:06:48.845Z,954.6
2022-08-04T06:08:04.808Z,954.6
2022-08-04T06:08:48.838Z,954.62
2022-08-04T06:09:48.837Z,954.62
2022-08-04T06:10:48.835Z,954.63
2022-08-04T06:12:00.347Z,954.63
2022-08-04T06:12:48.832Z,954.6
2022-08-04T06:13:50.999Z,954.63
2022-08-04T06:14:48.827Z,954.65
2022-08-04T06:15:48.825Z,954.58
2022-08-04T06:16:51.231Z,954.66
2022-08-04T06:18:34.240Z,954.59
2022-08-04T06:20:38.877Z,954.66
2022-08-04T06:21:38.876Z,954.64
2022-08-04T06:22:38.875Z,954.64
2022-08-04T06:23:52.892Z,954.65
2022-08-04T06:24:38.872Z,954.65
2022-08-04T06:25:38.870Z,954.64
2022-08-04T06:26:38.868Z,954.67
2022-08-04T06:27:38.867Z,954.65
2022-08-04T06:28:38.863Z,954.72
2022-08-04T06:29:38.863Z,954.7
2022-08-04T06:30:38.859Z,954.72
2022-08-04T06:32:29.133Z,954.72
2022-08-04T06:32:47.392Z,954.67
2022-08-04T06:33:54.048Z,954.67
2022-08-04T06:34:47.363Z,954.71
2022-08-04T06:35:47.367Z,954.7
2022-08-04T06:36:47.361Z,954.71
2022-08-04T06:37:47.701Z,954.7
2022-08-04T06:38:47.357Z,954.72
2022-08-04T06:39:47.358Z,954.72
2022-08-04T06:40:47.355Z,954.76
2022-08-04T06:41:55.338Z,954.74
2022-08-04T06:42:47.352Z,954.75
2022-08-04T06:43:47.355Z,954.77
2022-08-04T06:44:47.352Z,954.77
2022-08-04T06:45:47.350Z,954.77
2022-08-04T06:46:47.350Z,954.77
2022-08-04T06:47:47.350Z,954.76
2022-08-04T06:48:47.344Z,954.78
2022-08-04T06:51:23.692Z,954.78
2022-08-04T06:51:54.237Z,954.81
2022-08-04T06:52:54.235Z,954.79
2022-08-04T06:53:54.233Z,954.83
2022-08-04T06:54:54.236Z,954.82
2022-08-04T06:55:54.236Z,954.85
2022-08-04T06:56:54.233Z,954.8
2022-08-04T06:57:54.231Z,954.82
2022-08-04T06:58:54.233Z,954.8
2022-08-04T06:59:54.232Z,954.82
2022-08-04T07:00:54.233Z,954.88
2022-08-04T07:01:54.332Z,954.82
2022-08-04T07:02:54.237Z,954.84
2022-08-04T07:03:54.238Z,954.81
2022-08-04T07:04:54.241Z,954.76
2022-08-04T07:05:54.241Z,954.8
2022-08-04T07:06:54.245Z,954.86
2022-08-04T07:07:56.586Z,954.87
2022-08-04T07:08:54.250Z,954.81
2022-08-04T07:09:54.254Z,954.83
2022-08-04T07:10:54.259Z,954.84
2022-08-04T07:11:54.261Z,954.79
2022-08-04T07:12:54.293Z,954.77
2022-08-04T07:13:54.271Z,954.79
2022-08-04T07:14:54.275Z,954.77
2022-08-04T07:15:54.283Z,954.8
2022-08-04T07:16:54.288Z,954.78
2022-08-04T07:17:54.294Z,954.85
2022-08-04T07:18:54.298Z,954.83
2022-08-04T07:19:54.305Z,954.85
2022-08-04T07:20:54.310Z,954.82
2022-08-04T07:22:16.105Z,954.85
2022-08-04T07:22:54.327Z,954.89
2022-08-04T07:23:54.335Z,954.9
2022-08-04T07:24:54.343Z,954.87
2022-08-04T07:26:01.278Z,954.84
2022-08-04T07:26:54.358Z,954.87
2022-08-04T07:27:54.367Z,954.87
2022-08-04T07:28:54.375Z,954.84
2022-08-04T07:29:54.383Z,954.81
2022-08-04T07:30:54.390Z,954.84
2022-08-04T07:31:54.546Z,954.86
2022-08-04T07:32:54.410Z,954.88
2022-08-04T07:34:11.667Z,954.9
2022-08-04T07:34:54.427Z,954.87
2022-08-04T07:36:04.237Z,954.91
2022-08-04T07:36:55.302Z,954.95
2022-08-04T07:37:54.455Z,954.91
2022-08-04T07:38:54.503Z,954.86
2022-08-04T07:39:54.539Z,954.95
2022-08-04T07:40:54.486Z,954.91
2022-08-04T07:41:54.495Z,954.86
2022-08-04T07:42:54.506Z,954.88
2022-08-04T07:43:54.515Z,954.88
2022-08-04T07:44:54.523Z,954.92
2022-08-04T07:45:54.535Z,954.97
2022-08-04T07:46:54.545Z,954.95
2022-08-04T07:48:04.538Z,954.95
2022-08-04T07:48:54.565Z,954.84
2022-08-04T07:49:57.445Z,954.77
2022-08-04T07:50:54.584Z,954.62
2022-08-04T07:51:54.597Z,954.59
2022-08-04T07:53:15.565Z,954.61
2022-08-04T07:54:04.207Z,954.57
2022-08-04T07:55:03.996Z,954.58
2022-08-04T07:56:04.003Z,954.58
2022-08-04T07:57:04.010Z,954.62
2022-08-04T07:58:04.021Z,954.58
2022-08-04T07:59:04.029Z,954.57
2022-08-04T08:00:04.042Z,954.63
2022-08-04T08:01:04.068Z,954.59
2022-08-04T08:02:04.062Z,954.57
2022-08-04T08:03:04.099Z,954.58
2022-08-04T08:04:04.077Z,954.6
2022-08-04T08:05:04.084Z,954.58
2022-08-04T08:06:18.377Z,954.57
2022-08-04T08:07:04.104Z,954.56
2022-08-04T08:08:04.115Z,954.58
2022-08-04T08:09:12.822Z,954.52
2022-08-04T08:10:04.131Z,954.57
2022-08-04T08:11:04.151Z,954.54
2022-08-04T08:12:34.596Z,954.52
2022-08-04T08:13:04.158Z,954.5
2022-08-04T08:14:04.162Z,954.52
2022-08-04T08:15:04.173Z,954.51
2022-08-04T08:16:04.179Z,954.51
2022-08-04T08:17:04.191Z,954.51
2022-08-04T08:18:04.193Z,954.52
2022-08-04T08:19:04.205Z,954.49
2022-08-04T08:20:04.208Z,954.49
2022-08-04T08:21:04.219Z,954.5
2022-08-04T08:22:04.224Z,954.44
2022-08-04T08:23:04.238Z,954.48
2022-08-04T08:24:06.596Z,954.46
2022-08-04T08:25:04.246Z,954.49
2022-08-04T08:26:04.253Z,954.43
2022-08-04T08:27:04.268Z,954.45
2022-08-04T08:28:04.265Z,954.47
2022-08-04T08:29:04.278Z,954.43
2022-08-04T08:30:04.279Z,954.49
2022-08-04T08:31:05.501Z,954.44
2022-08-04T08:32:08.720Z,954.47
2022-08-04T08:33:05.614Z,954.48
2022-08-04T08:34:04.305Z,954.47
2022-08-04T08:35:04.313Z,954.49
2022-08-04T08:36:04.318Z,954.43
2022-08-04T08:37:04.326Z,954.46
2022-08-04T08:38:04.331Z,954.51
2022-08-04T08:39:04.395Z,954.47
2022-08-04T08:40:04.342Z,954.5
2022-08-04T08:41:04.351Z,954.5
2022-08-04T08:42:04.356Z,954.47
2022-08-04T08:43:59.847Z,954.5
2022-08-04T08:44:40.503Z,954.47
2022-08-04T08:45:40.514Z,954.5
2022-08-04T08:46:49.213Z,954.53
2022-08-04T08:47:58.530Z,954.53
2022-08-04T08:48:40.528Z,954.5
2022-08-04T08:50:01.377Z,954.55
2022-08-04T08:50:40.541Z,954.54
2022-08-04T08:51:40.549Z,954.54
2022-08-04T08:52:57.725Z,954.59
2022-08-04T08:53:40.558Z,954.6
2022-08-04T08:54:40.564Z,954.58
2022-08-04T08:55:40.580Z,954.6
2022-08-04T08:56:40.573Z,954.58
2022-08-04T08:57:43.882Z,954.6
2022-08-04T08:58:40.589Z,954.59
2022-08-04T08:59:40.596Z,954.57
2022-08-04T09:00:40.602Z,954.55
2022-08-04T09:01:41.926Z,954.57
2022-08-04T09:02:40.612Z,954.53
2022-08-04T09:03:40.614Z,954.61
2022-08-04T09:04:40.622Z,954.57
2022-08-04T09:05:40.625Z,954.6
2022-08-04T09:06:41.041Z,954.58
2022-08-04T09:07:40.640Z,954.61
2022-08-04T09:08:40.649Z,954.59
2022-08-04T09:09:40.649Z,954.59
2022-08-04T09:10:40.656Z,954.63
2022-08-04T09:11:40.658Z,954.58
2022-08-04T09:12:40.665Z,954.56
2022-08-04T09:13:40.677Z,954.57
2022-08-04T09:14:40.679Z,954.6
2022-08-04T09:15:40.681Z,954.62
2022-08-04T09:16:40.687Z,954.57
2022-08-04T09:17:40.691Z,954.6
2022-08-04T09:18:40.698Z,954.6
2022-08-04T09:19:40.702Z,954.59
2022-08-04T09:20:40.710Z,954.58
2022-08-04T09:21:40.712Z,954.58
2022-08-04T09:22:40.721Z,954.58
2022-08-04T09:23:40.723Z,954.57
2022-08-04T09:24:40.729Z,954.6
2022-08-04T09:25:40.735Z,954.56
2022-08-04T09:26:40.743Z,954.57
2022-08-04T09:27:40.743Z,954.58
2022-08-04T09:28:56.019Z,954.57
2022-08-04T09:29:40.756Z,954.57
2022-08-04T09:30:40.763Z,954.52
2022-08-04T09:31:48.902Z,954.51
2022-08-04T09:32:40.772Z,954.51
2022-08-04T09:33:45.183Z,954.52
2022-08-04T09:34:40.784Z,954.51
2022-08-04T09:35:40.789Z,954.46
2022-08-04T09:36:40.798Z,954.49
2022-08-04T09:37:45.511Z,954.55
2022-08-04T09:38:40.857Z,954.54
2022-08-04T09:39:41.019Z,954.51
2022-08-04T09:40:52.352Z,954.56
2022-08-04T09:41:52.316Z,954.53
2022-08-04T09:42:48.875Z,954.51
2022-08-04T09:43:57.331Z,954.51
2022-08-04T09:45:31.813Z,954.54
2022-08-04T09:46:27.540Z,954.52
2022-08-04T09:47:39.071Z,954.55
2022-08-04T09:48:27.553Z,954.52
2022-08-04T09:49:27.559Z,954.51
2022-08-04T09:50:27.563Z,954.45
2022-08-04T09:51:58.562Z,954.49
2022-08-04T09:52:27.572Z,954.52
2022-08-04T09:53:27.667Z,954.5
2022-08-04T09:54:29.853Z,954.48
2022-08-04T09:55:27.674Z,954.48
2022-08-04T09:56:27.683Z,954.5
2022-08-04T09:57:27.688Z,954.51
2022-08-04T09:58:27.696Z,954.45
2022-08-04T09:59:27.698Z,954.44
2022-08-04T10:00:38.511Z,954.46
2022-08-04T10:01:27.710Z,954.42
2022-08-04T10:02:27.717Z,954.42
2022-08-04T10:03:27.803Z,954.39
2022-08-04T10:04:27.727Z,954.35
2022-08-04T10:05:27.735Z,954.38
2022-08-04T10:06:27.738Z,954.39
2022-08-04T10:07:27.746Z,954.35
2022-08-04T10:08:27.755Z,954.35
2022-08-04T10:09:27.754Z,954.37
2022-08-04T10:10:28.662Z,954.38
2022-08-04T10:11:28.664Z,954.37
2022-08-04T10:12:28.672Z,954.44
2022-08-04T10:13:28.680Z,954.41
2022-08-04T10:14:28.683Z,954.35
2022-08-04T10:15:28.687Z,954.32
2022-08-04T10:16:28.695Z,954.31
2022-08-04T10:17:28.697Z,954.29
2022-08-04T10:18:28.706Z,954.29
2022-08-04T10:19:28.709Z,954.32
2022-08-04T10:20:33.813Z,954.33
2022-08-04T10:21:28.722Z,954.34
2022-08-04T10:22:34.473Z,954.36
2022-08-04T10:23:28.736Z,954.28
2022-08-04T10:24:28.741Z,954.3
2022-08-04T10:25:37.258Z,954.33
2022-08-04T10:26:28.757Z,954.29
2022-08-04T10:27:28.757Z,954.31
2022-08-04T10:28:28.763Z,954.3
2022-08-04T10:29:28.770Z,954.29
2022-08-04T10:30:28.775Z,954.32
2022-08-04T10:31:28.781Z,954.32
2022-08-04T10:32:28.787Z,954.25
2022-08-04T10:33:28.792Z,954.28
2022-08-04T10:34:28.800Z,954.26
2022-08-04T10:35:28.805Z,954.26
2022-08-04T10:36:28.811Z,954.29
2022-08-04T10:37:55.327Z,954.26
2022-08-04T10:38:28.825Z,954.27
2022-08-04T10:39:42.556Z,954.28
2022-08-04T10:40:28.838Z,954.27
2022-08-04T10:41:28.841Z,954.29
2022-08-04T10:42:28.848Z,954.25
2022-08-04T10:43:28.854Z,954.28
2022-08-04T10:44:28.862Z,954.25
2022-08-04T10:45:28.867Z,954.22
2022-08-04T10:46:28.871Z,954.25
2022-08-04T10:47:28.879Z,954.25
2022-08-04T10:48:32.429Z,954.25
2022-08-04T10:49:28.892Z,954.21
2022-08-04T10:50:28.895Z,954.18
2022-08-04T10:51:28.902Z,954.18
2022-08-04T10:52:28.908Z,954.18
2022-08-04T10:53:28.916Z,954.2
2022-08-04T10:54:28.920Z,954.19
2022-08-04T10:56:05.904Z,954.19
2022-08-04T10:56:28.934Z,954.23
2022-08-04T10:57:29.257Z,954.21
2022-08-04T10:58:47.231Z,954.19
2022-08-04T10:59:28.956Z,954.18
2022-08-04T11:00:28.961Z,954.11
2022-08-04T11:01:51.185Z,954.13
2022-08-04T11:02:29.002Z,954.1
2022-08-04T11:03:29.013Z,954.12
2022-08-04T11:04:28.984Z,954.13
2022-08-04T11:05:28.991Z,954.13
2022-08-04T11:06:28.999Z,954.1
2022-08-04T11:07:29.007Z,954.1
2022-08-04T11:08:29.012Z,954.08
2022-08-04T11:09:29.212Z,954.13
2022-08-04T11:10:29.212Z,954.05
2022-08-04T11:11:29.220Z,954.1
2022-08-04T11:12:29.226Z,954.08
2022-08-04T11:13:29.741Z,954.08
2022-08-04T11:14:29.237Z,954.07
2022-08-04T11:15:29.246Z,954.06
2022-08-04T11:16:29.253Z,954.07
2022-08-04T11:17:29.258Z,954.05
2022-08-04T11:18:29.265Z,954.1
2022-08-04T11:19:42.893Z,954.1
2022-08-04T11:20:38.318Z,954.1
2022-08-04T11:21:38.325Z,954.09
2022-08-04T11:22:38.331Z,954.07
2022-08-04T11:23:38.339Z,954.1
2022-08-04T11:24:38.344Z,954.13
2022-08-04T11:25:38.349Z,954.14
2022-08-04T11:26:38.354Z,954.16
2022-08-04T11:27:38.362Z,954.12
2022-08-04T11:28:38.374Z,954.11
2022-08-04T11:29:38.373Z,954.11
2022-08-04T11:30:38.380Z,954.09
2022-08-04T11:31:38.387Z,954.05
2022-08-04T11:32:38.395Z,954.06
2022-08-04T11:33:38.409Z,954.06
2022-08-04T11:34:38.404Z,954.02
2022-08-04T11:35:38.411Z,953.99
2022-08-04T11:36:38.417Z,954.03
2022-08-04T11:37:38.422Z,954.01
2022-08-04T11:38:38.433Z,954.04
2022-08-04T11:39:38.477Z,954.01
2022-08-04T11:40:38.443Z,954.08
2022-08-04T11:41:38.446Z,954.06
2022-08-04T11:42:38.455Z,954.07
2022-08-04T11:43:55.962Z,954.08
2022-08-04T11:44:38.467Z,954.03
2022-08-04T11:45:38.472Z,954.01
2022-08-04T11:46:38.482Z,953.97
2022-08-04T11:47:38.487Z,954.01
2022-08-04T11:48:38.495Z,954
2022-08-04T11:49:56.243Z,953.97
2022-08-04T11:50:38.509Z,953.99
2022-08-04T11:51:38.509Z,954.02
2022-08-04T11:52:38.518Z,954.02
2022-08-04T11:53:38.524Z,954.02
2022-08-04T11:54:38.529Z,954.02
2022-08-04T11:56:07.352Z,954.03
2022-08-04T11:56:42.060Z,953.98
2022-08-04T11:57:42.054Z,953.95
2022-08-04T11:58:50.185Z,954
2022-08-04T11:59:42.070Z,954.03
2022-08-04T12:00:42.085Z,954.03
2022-08-04T12:01:42.082Z,954.04
2022-08-04T12:02:42.163Z,954.03
2022-08-04T12:03:42.093Z,953.98
2022-08-04T12:04:42.102Z,953.98
2022-08-04T12:05:42.107Z,953.94
2022-08-04T12:06:42.114Z,953.91
2022-08-04T12:07:44.560Z,953.88
2022-08-04T12:08:44.358Z,953.82
2022-08-04T12:09:44.411Z,953.94
2022-08-04T12:10:44.366Z,953.89
2022-08-04T12:11:44.373Z,953.89
2022-08-04T12:12:44.383Z,953.91
2022-08-04T12:13:44.383Z,953.91
2022-08-04T12:14:44.391Z,953.95
2022-08-04T12:15:44.397Z,953.91
2022-08-04T12:16:44.403Z,953.93
2022-08-04T12:17:52.283Z,953.88
2022-08-04T12:18:44.417Z,953.85
2022-08-04T12:19:57.919Z,953.83
2022-08-04T12:20:50.152Z,953.83
2022-08-04T12:21:50.503Z,953.87
2022-08-04T12:22:50.164Z,953.82
2022-08-04T12:23:50.171Z,953.77
2022-08-04T12:24:50.177Z,953.77
2022-08-04T12:25:50.186Z,953.75
2022-08-04T12:26:50.190Z,953.76
2022-08-04T12:27:50.196Z,953.72
2022-08-04T12:29:09.434Z,953.74
2022-08-04T12:29:54.368Z,953.76
2022-08-04T12:31:18.063Z,953.74
2022-08-04T12:32:18.066Z,953.72
2022-08-04T12:33:18.339Z,953.71
2022-08-04T12:34:18.083Z,953.71
2022-08-04T12:35:18.084Z,953.72
2022-08-04T12:36:21.101Z,953.76
2022-08-04T12:37:20.438Z,953.7
2022-08-04T12:38:18.107Z,953.77
2022-08-04T12:39:18.227Z,953.78
2022-08-04T12:40:27.971Z,953.73
2022-08-04T12:41:18.121Z,953.7
2022-08-04T12:42:21.255Z,953.68
2022-08-04T12:43:18.134Z,953.7
2022-08-04T12:44:32.636Z,953.71
2022-08-04T12:45:18.147Z,953.69
2022-08-04T12:46:18.155Z,953.65
2022-08-04T12:47:26.146Z,953.69
2022-08-04T12:48:21.227Z,953.67
2022-08-04T12:49:18.169Z,953.66
2022-08-04T12:50:18.176Z,953.67
2022-08-04T12:51:31.308Z,953.63
2022-08-04T12:52:18.191Z,953.64
2022-08-04T12:53:32.783Z,953.61